Time;durP1;ratioP1;P1;durP2;ratioP2;P2;SDS_P1;SDS_P2;PMS_P1;PMS_P2;Temp;Humidity;BMP_temperature;BMP_pressure;BME280_temperature;BME280_humidity;BME280_pressure;Samples;Min_cycle;Max_cycle;Signal;HPM_P1;HPM_P2
2022/01/28 08:59:01;;;;;;;39.40;21.12;;;;;;;1.20;84.44;99518.92;1694914;83;21077;-38
2022/01/28 09:01:46;;;;;;;36.23;22.32;;;;;;;1.14;84.53;99526.50;1730823;81;21012;-45
2022/01/28 09:04:13;;;;;;;39.38;22.13;;;;;;;1.08;84.64;99520.33;1717545;81;20996;-45
2022/01/28 09:10:37;;;;;;;37.65;21.37;;;;;;;1.02;85.02;99510.73;1711502;81;21591;-44
2022/01/28 09:14:16;;;;;;;29.10;16.80;;;;;;;1.05;85.11;99508.25;1713482;81;20992;-45
2022/01/28 09:20:57;;;;;;;35.05;20.82;;;;;;;1.19;84.48;99504.72;1690707;81;21452;-38
2022/01/28 09:24:25;;;;;;;34.60;19.98;;;;;;;1.21;84.14;99504.33;1699632;81;21635;-38
2022/01/28 09:27:33;;;;;;;38.20;21.77;;;;;;;1.18;84.23;99501.70;1704250;82;21409;-38
2022/01/28 09:30:12;;;;;;;33.98;20.50;;;;;;;1.11;84.65;99503.25;1709672;81;21357;-46
2022/01/28 09:32:39;;;;;;;34.35;21.70;;;;;;;1.04;85.16;99492.31;1717669;81;21025;-46
2022/01/28 09:35:07;;;;;;;43.42;21.05;;;;;;;1.01;85.54;99485.39;1705257;81;21088;-46
2022/01/28 09:37:39;;;;;;;36.15;21.80;;;;;;;1.03;85.85;99482.42;1708915;81;20988;-45
2022/01/28 09:40:48;;;;;;;30.97;18.87;;;;;;;1.08;85.88;99472.66;1708473;81;21075;-37
2022/01/28 09:43:21;;;;;;;32.45;20.00;;;;;;;1.15;85.94;99464.24;1704926;81;21950;-38
2022/01/28 09:45:48;;;;;;;37.45;21.20;;;;;;;1.22;85.69;99464.45;1684666;81;21131;-46
2022/01/28 09:48:19;;;;;;;30.35;18.42;;;;;;;1.26;85.47;99464.08;1710628;81;21552;-38
2022/01/28 09:50:46;;;;;;;36.03;21.62;;;;;;;1.28;85.25;99464.59;1685912;82;21048;-38
2022/01/28 09:53:19;;;;;;;34.25;19.55;;;;;;;1.25;85.12;99471.37;1711639;81;20980;-37
2022/01/28 09:55:47;;;;;;;31.62;19.85;;;;;;;1.23;85.37;99459.74;1714813;81;21032;-45
2022/01/28 09:58:36;;;;;;;33.42;20.65;;;;;;;1.24;85.67;99458.91;1713838;81;21465;-38
2022/01/28 10:01:26;;;;;;;32.08;19.10;;;;;;;1.30;85.71;99449.16;1746524;79;21017;-37
2022/01/28 10:04:48;;;;;;;32.78;17.80;;;;;;;1.42;85.50;99445.99;1769690;79;21414;-36
2022/01/28 10:08:33;;;;;;;32.23;18.57;;;;;;;1.54;85.01;99444.56;1764633;79;21561;-45
2022/01/28 10:12:35;;;;;;;32.25;18.80;;;;;;;1.64;84.17;99442.20;1701671;82;21493;-37
2022/01/28 10:20:12;;;;;;;27.00;17.55;;;;;;;1.75;83.75;99431.70;1735310;81;20985;-45
2022/01/28 10:28:30;;;;;;;35.52;19.37;;;;;;;1.73;83.61;99419.17;1737252;81;21093;-46
2022/01/28 10:32:05;;;;;;;29.77;17.17;;;;;;;1.73;83.73;99398.11;1709018;82;21485;-46
2022/01/28 10:35:02;;;;;;;27.05;17.15;;;;;;;1.78;83.66;99375.87;1735957;80;21327;-37
2022/01/28 10:37:36;;;;;;;29.00;17.87;;;;;;;1.87;83.24;99370.05;1736586;81;21008;-45
2022/01/28 10:40:10;;;;;;;30.48;17.87;;;;;;;1.94;83.34;99377.06;1700331;82;20984;-38
2022/01/28 10:42:52;;;;;;;34.45;19.50;;;;;;;2.07;83.29;99391.94;1708598;81;20992;-38
2022/01/28 10:45:32;;;;;;;30.02;18.52;;;;;;;2.19;82.51;99381.40;1698574;82;21020;-38
2022/01/28 10:48:00;;;;;;;26.90;16.70;;;;;;;2.30;82.18;99385.06;1639703;82;22074;-38
2022/01/28 10:50:38;;;;;;;28.60;17.25;;;;;;;2.40;81.20;99380.52;1715920;81;21043;-36
2022/01/28 10:53:14;;;;;;;31.90;18.75;;;;;;;2.44;81.21;99383.61;1730845;81;20984;-38
2022/01/28 10:55:48;;;;;;;27.60;17.82;;;;;;;2.46;81.07;99384.92;1710704;82;21435;-45
2022/01/28 10:58:18;;;;;;;34.55;18.67;;;;;;;2.46;80.89;99388.38;1768839;79;21028;-43
2022/01/28 11:00:53;;;;;;;27.85;17.60;;;;;;;2.51;81.21;99379.00;1774605;79;21036;-46
2022/01/28 11:03:40;;;;;;;31.45;19.07;;;;;;;2.55;80.89;99378.61;1780410;79;21056;-37
2022/01/28 11:06:27;;;;;;;29.55;19.15;;;;;;;2.55;81.00;99380.80;1773202;79;21028;-44
2022/01/28 11:08:56;;;;;;;25.43;16.32;;;;;;;2.53;80.99;99377.73;1716941;81;21015;-46
2022/01/28 11:11:23;;;;;;;29.50;17.35;;;;;;;2.45;81.02;99390.94;1714477;81;21711;-38
2022/01/28 11:13:51;;;;;;;27.62;18.23;;;;;;;2.38;81.00;99383.08;1703997;82;21023;-45
2022/01/28 11:16:28;;;;;;;28.85;18.27;;;;;;;2.29;81.28;99376.45;1710922;82;21049;-38
2022/01/28 11:19:17;;;;;;;28.25;17.65;;;;;;;2.29;81.72;99375.58;1712348;82;21037;-38
2022/01/28 11:22:45;;;;;;;38.35;22.50;;;;;;;2.28;81.73;99373.84;1747415;80;21082;-39
2022/01/28 11:25:43;;;;;;;29.95;18.90;;;;;;;2.30;82.04;99373.02;1699257;83;21093;-38
2022/01/28 11:28:14;;;;;;;30.75;18.65;;;;;;;2.35;81.85;99379.56;1708913;82;21435;-47
2022/01/28 11:30:52;;;;;;;31.95;19.02;;;;;;;2.36;81.77;99357.64;1707886;82;21890;-45
2022/01/28 11:33:56;;;;;;;31.23;19.00;;;;;;;2.40;81.35;99358.15;1710126;82;21017;-37
2022/01/28 11:37:05;;;;;;;33.48;19.75;;;;;;;2.49;81.33;99360.44;1689335;82;21011;-46
2022/01/28 11:39:51;;;;;;;31.12;18.07;;;;;;;2.64;80.74;99345.20;1775980;79;21670;-38
2022/01/28 11:42:31;;;;;;;27.30;17.05;;;;;;;2.88;80.55;99337.84;1776470;79;21435;-38
2022/01/28 11:45:33;;;;;;;28.57;17.02;;;;;;;3.15;78.91;99347.74;1771777;79;21647;-46
2022/01/28 11:48:01;;;;;;;30.15;17.75;;;;;;;3.41;78.27;99338.17;1753356;79;21386;-47
2022/01/28 11:51:04;;;;;;;28.85;18.50;;;;;;;3.69;76.54;99336.82;1766370;79;21140;-38
2022/01/28 11:54:04;;;;;;;29.85;17.85;;;;;;;3.66;76.13;99321.28;1757308;79;21091;-38
2022/01/28 11:57:24;;;;;;;28.50;18.05;;;;;;;3.52;76.28;99307.29;1772053;79;21104;-46
2022/01/28 12:04:07;;;;;;;27.65;16.95;;;;;;;3.25;76.80;99305.20;1763743;79;21013;-46
2022/01/28 12:07:40;;;;;;;25.15;15.93;;;;;;;3.11;77.32;99310.19;1761920;79;21455;-46
2022/01/28 12:11:15;;;;;;;28.15;16.80;;;;;;;2.97;78.00;99319.47;1748376;79;21558;-46
2022/01/28 12:14:14;;;;;;;30.85;16.75;;;;;;;2.79;78.56;99322.65;1765269;79;21561;-45
2022/01/28 12:16:57;;;;;;;22.93;15.78;;;;;;;2.65;79.34;99314.23;1741859;79;21075;-38
2022/01/28 12:19:31;;;;;;;27.58;17.57;;;;;;;2.54;79.58;99322.65;1737397;79;21040;-38
2022/01/28 12:22:10;;;;;;;25.23;17.10;;;;;;;2.45;80.26;99319.51;1759339;79;21476;-45
2022/01/28 12:24:44;;;;;;;27.02;17.57;;;;;;;2.42;80.86;99319.44;1755051;79;21388;-37
2022/01/28 12:27:17;;;;;;;25.40;15.58;;;;;;;2.40;81.20;99315.98;1760431;79;21372;-45
2022/01/28 12:29:46;;;;;;;27.87;17.30;;;;;;;2.42;81.33;99301.80;1669818;79;20989;-46
2022/01/28 12:32:13;;;;;;;26.42;16.82;;;;;;;2.46;81.17;99303.17;1763454;79;21020;-47
2022/01/28 12:34:47;;;;;;;24.90;15.45;;;;;;;2.49;81.29;99299.33;1777043;80;21944;-39
2022/01/28 12:37:14;;;;;;;26.52;16.80;;;;;;;2.53;80.92;99305.00;1760464;79;20991;-46
2022/01/28 12:39:55;;;;;;;22.70;14.68;;;;;;;2.54;81.01;99303.28;1770583;79;21001;-46
2022/01/28 12:42:23;;;;;;;22.50;16.23;;;;;;;2.53;81.12;99305.00;1700853;81;21846;-45
2022/01/28 12:44:57;;;;;;;27.73;16.55;;;;;;;2.47;81.27;99310.06;1722355;81;21043;-46
2022/01/28 12:47:25;;;;;;;26.97;16.55;;;;;;;2.42;81.70;99315.99;1722503;81;21025;-38
2022/01/28 12:50:02;;;;;;;26.02;16.17;;;;;;;2.35;82.03;99318.47;1700133;82;21098;-39
2022/01/28 12:52:26;;;;;;;25.17;16.65;;;;;;;2.29;82.42;99325.24;1700105;82;20993;-39
2022/01/28 12:54:53;;;;;;;27.32;17.15;;;;;;;2.23;82.79;99330.30;1687915;83;21073;-45
2022/01/28 12:57:21;;;;;;;27.13;17.37;;;;;;;2.17;83.07;99328.90;1704021;82;20949;-38
2022/01/28 12:59:52;;;;;;;29.52;18.25;;;;;;;2.12;83.27;99326.23;1704384;82;21009;-45
2022/01/28 13:02:19;;;;;;;28.07;17.00;;;;;;;2.09;83.74;99318.45;1781725;79;21032;-38
2022/01/28 13:04:58;;;;;;;28.55;18.12;;;;;;;2.07;84.05;99320.98;1781810;79;20987;-45
2022/01/28 13:09:54;;;;;;;31.77;20.55;;;;;;;1.98;84.40;99323.83;1775750;79;21048;-39
